createdAt,value
2018-02-15T00:01:20.290Z,17.63
2018-02-15T00:03:47.844Z,18.80
2018-02-15T00:06:16.260Z,17.60
2018-02-15T00:08:43.807Z,18.27
2018-02-15T00:11:12.288Z,19.63
2018-02-15T00:13:39.890Z,19.27
2018-02-15T00:16:07.440Z,18.73
2018-02-15T00:18:35.044Z,17.93
2018-02-15T00:21:02.638Z,18.20
2018-02-15T00:23:30.218Z,16.40
2018-02-15T00:25:59.230Z,18.53
2018-02-15T00:28:26.819Z,17.40
2018-02-15T00:30:54.412Z,17.30
2018-02-15T00:33:21.998Z,16.30
2018-02-15T00:35:49.566Z,17.53
2018-02-15T00:38:17.534Z,17.47
2018-02-15T00:40:45.075Z,18.33
2018-02-15T00:43:12.970Z,16.77
2018-02-15T00:45:40.533Z,16.93
2018-02-15T00:48:08.076Z,16.33
2018-02-15T00:50:35.660Z,16.97
2018-02-15T00:53:03.890Z,16.57
2018-02-15T00:55:31.446Z,16.87
2018-02-15T00:57:59.375Z,16.37
2018-02-15T01:00:26.971Z,17.10
2018-02-15T01:02:54.514Z,16.97
2018-02-15T01:05:22.967Z,16.63
2018-02-15T01:07:50.574Z,17.80
2018-02-15T01:10:18.115Z,17.10
2018-02-15T01:12:45.703Z,17.57
2018-02-15T01:15:13.298Z,16.50
2018-02-15T01:17:40.843Z,19.13
2018-02-15T01:20:08.407Z,18.03
2018-02-15T01:22:36.695Z,18.63
2018-02-15T01:25:04.479Z,20.33
2018-02-15T01:27:32.019Z,18.97
2018-02-15T01:29:59.820Z,18.93
2018-02-15T01:32:27.371Z,18.93
2018-02-15T01:34:55.387Z,18.77
2018-02-15T01:37:22.954Z,18.97
2018-02-15T01:39:50.908Z,18.27
2018-02-15T01:42:18.501Z,16.47
2018-02-15T01:44:46.051Z,16.07
2018-02-15T01:47:14.200Z,16.57
2018-02-15T01:49:53.678Z,16.33
2018-02-15T01:52:21.271Z,16.07
2018-02-15T01:54:48.815Z,15.77
2018-02-15T01:57:16.375Z,15.40
2018-02-15T01:59:43.981Z,16.60
2018-02-15T02:02:11.568Z,16.37
2018-02-15T02:04:39.124Z,15.63
2018-02-15T02:07:06.725Z,15.77
2018-02-15T02:09:34.958Z,15.40
2018-02-15T02:12:02.782Z,17.13
2018-02-15T02:14:30.374Z,16.20
2018-02-15T02:16:58.425Z,18.13
2018-02-15T02:19:26.018Z,17.43
2018-02-15T02:21:53.567Z,17.53
2018-02-15T02:24:21.154Z,17.80
2018-02-15T02:26:49.213Z,17.27
2018-02-15T02:29:16.798Z,17.03
2018-02-15T02:31:44.351Z,16.43
2018-02-15T02:34:11.965Z,17.33
2018-02-15T02:36:40.384Z,16.80
2018-02-15T02:39:07.937Z,18.00
2018-02-15T02:41:35.485Z,17.33
2018-02-15T02:44:03.662Z,17.17
2018-02-15T02:46:31.217Z,17.70
2018-02-15T02:48:58.761Z,17.77
2018-02-15T02:51:26.380Z,18.53
2018-02-15T02:53:53.962Z,18.00
2018-02-15T02:56:21.504Z,21.13
2018-02-15T02:58:49.099Z,18.60
2018-02-15T03:01:16.652Z,18.17
2018-02-15T03:03:44.199Z,19.20
2018-02-15T03:06:11.820Z,17.53
2018-02-15T03:08:39.366Z,18.03
2018-02-15T03:11:07.819Z,16.77
2018-02-15T03:13:35.416Z,16.20
2018-02-15T03:16:02.968Z,16.00
2018-02-15T03:18:30.560Z,16.17
2018-02-15T03:20:58.114Z,15.13
2018-02-15T03:23:25.710Z,16.30
2018-02-15T03:25:53.259Z,16.43
2018-02-15T03:28:21.030Z,16.50
2018-02-15T03:30:48.725Z,17.57
2018-02-15T03:33:16.818Z,16.47
2018-02-15T03:35:44.884Z,16.37
2018-02-15T03:38:12.448Z,15.17
2018-02-15T03:40:40.042Z,17.17
2018-02-15T03:43:07.626Z,16.60
2018-02-15T03:45:35.215Z,15.10
2018-02-15T03:48:02.756Z,15.43
2018-02-15T03:50:30.986Z,15.77
2018-02-15T03:52:58.934Z,15.60
2018-02-15T03:55:26.488Z,14.40
2018-02-15T03:57:54.081Z,15.47
2018-02-15T04:00:21.633Z,15.77
2018-02-15T04:02:49.214Z,14.67
2018-02-15T04:05:16.754Z,14.17
2018-02-15T04:07:44.354Z,14.77
2018-02-15T04:10:11.899Z,14.63
2018-02-15T04:12:39.502Z,15.93
2018-02-15T04:15:07.052Z,14.70
2018-02-15T04:17:35.157Z,15.13
2018-02-15T04:20:02.703Z,15.43
2018-02-15T04:22:31.126Z,15.97
2018-02-15T04:24:58.710Z,14.77
2018-02-15T04:27:26.630Z,15.83
2018-02-15T04:29:54.215Z,15.07
2018-02-15T04:32:21.823Z,17.60
2018-02-15T04:34:49.376Z,15.90
2018-02-15T04:37:16.936Z,16.57
2018-02-15T04:39:44.543Z,16.23
2018-02-15T04:42:12.082Z,15.30
2018-02-15T04:44:39.794Z,17.23
2018-02-15T04:47:07.899Z,15.73
2018-02-15T04:49:35.452Z,15.97
2018-02-15T04:52:03.080Z,16.00
2018-02-15T04:54:30.635Z,14.90
2018-02-15T04:56:58.227Z,16.13
2018-02-15T04:59:25.803Z,15.53
2018-02-15T05:01:53.954Z,15.13
2018-02-15T05:04:21.548Z,16.53
2018-02-15T05:06:49.138Z,15.87
2018-02-15T05:09:16.682Z,15.27
2018-02-15T05:11:44.228Z,16.20
2018-02-15T05:14:11.814Z,15.77
2018-02-15T05:16:39.784Z,16.37
2018-02-15T05:19:08.022Z,16.23
2018-02-15T05:21:35.608Z,15.80
2018-02-15T05:24:03.737Z,16.53
2018-02-15T05:26:31.283Z,17.43
2018-02-15T05:28:58.871Z,19.33
2018-02-15T05:31:26.462Z,21.00
2018-02-15T05:33:54.357Z,19.63
2018-02-15T05:36:21.954Z,23.47
2018-02-15T05:38:49.761Z,20.77
2018-02-15T05:41:17.350Z,21.10
2018-02-15T05:43:44.902Z,20.30
2018-02-15T05:46:12.773Z,20.50
2018-02-15T05:48:40.580Z,20.45
2018-02-15T05:51:09.527Z,21.40
2018-02-15T05:53:37.329Z,30.90
2018-02-15T05:56:04.930Z,49.15
2018-02-15T05:58:34.266Z,31.35
2018-02-15T06:01:02.431Z,26.53
2018-02-15T06:03:30.087Z,29.45
2018-02-15T06:05:57.978Z,29.27
2018-02-15T06:08:25.761Z,32.75
2018-02-15T06:10:53.333Z,28.27
2018-02-15T06:13:21.732Z,33.90
2018-02-15T06:15:49.756Z,29.00
2018-02-15T06:18:17.321Z,26.57
2018-02-15T06:20:45.193Z,30.80
2018-02-15T06:23:13.858Z,28.00
2018-02-15T06:25:41.426Z,27.60
2018-02-15T06:28:10.022Z,24.85
2018-02-15T06:30:37.566Z,23.55
2018-02-15T06:33:05.164Z,20.00
2018-02-15T06:35:32.752Z,22.37
2018-02-15T06:38:00.287Z,19.43
2018-02-15T06:40:27.860Z,19.37
2018-02-15T06:42:55.398Z,18.77
2018-02-15T06:45:23.038Z,17.90
2018-02-15T06:47:50.562Z,17.50
2018-02-15T06:50:19.032Z,16.07
2018-02-15T06:52:47.343Z,14.97
2018-02-15T06:55:14.858Z,15.80
2018-02-15T06:57:42.416Z,14.33
2018-02-15T07:00:10.188Z,15.27
2018-02-15T07:02:38.259Z,15.00
2018-02-15T07:05:05.882Z,15.65
2018-02-15T07:07:33.891Z,14.43
2018-02-15T07:10:01.458Z,16.30
2018-02-15T07:12:30.311Z,14.77
2018-02-15T07:14:58.895Z,14.40
2018-02-15T07:17:27.816Z,14.30
2018-02-15T07:19:55.427Z,15.02
2018-02-15T07:22:24.602Z,15.27
2018-02-15T07:24:53.306Z,14.30
2018-02-15T07:27:21.520Z,15.10
2018-02-15T07:29:49.090Z,15.82
2018-02-15T07:32:16.647Z,14.07
2018-02-15T07:34:45.988Z,15.77
2018-02-15T07:37:13.505Z,14.87
2018-02-15T07:39:41.090Z,16.52
2018-02-15T07:42:09.300Z,15.27
2018-02-15T07:44:36.911Z,14.65
2018-02-15T07:47:04.473Z,12.63
2018-02-15T07:49:32.058Z,12.30
2018-02-15T07:51:59.645Z,13.50
2018-02-15T07:54:27.578Z,17.25
2018-02-15T07:56:55.142Z,13.40
2018-02-15T07:59:22.734Z,12.30
2018-02-15T08:01:51.268Z,10.87
2018-02-15T08:04:24.605Z,14.70
2018-02-15T08:06:52.603Z,13.07
2018-02-15T08:09:20.171Z,15.75
2018-02-15T08:11:48.097Z,13.50
2018-02-15T08:14:16.129Z,14.07
2018-02-15T08:16:43.899Z,13.77
2018-02-15T08:19:11.423Z,13.23
2018-02-15T08:21:38.998Z,13.23
2018-02-15T08:24:06.864Z,13.27
2018-02-15T08:26:34.626Z,13.70
2018-02-15T08:29:03.134Z,14.25
2018-02-15T08:31:30.965Z,12.33
2018-02-15T08:33:58.516Z,13.75
2018-02-15T08:36:26.288Z,12.97
2018-02-15T08:38:53.819Z,12.43
2018-02-15T08:41:22.237Z,13.90
2018-02-15T08:43:50.567Z,14.87
2018-02-15T08:46:18.145Z,14.47
2018-02-15T08:48:45.690Z,14.43
2018-02-15T08:51:13.273Z,14.20
2018-02-15T08:53:40.800Z,14.03
2018-02-15T08:56:08.404Z,13.63
2018-02-15T08:58:35.953Z,14.87
2018-02-15T09:01:03.704Z,12.67
2018-02-15T09:03:31.699Z,15.73
2018-02-15T09:05:59.252Z,14.70
2018-02-15T09:08:26.804Z,15.57
2018-02-15T09:10:54.382Z,15.55
2018-02-15T09:13:21.961Z,13.23
2018-02-15T09:15:50.796Z,13.67
2018-02-15T09:18:19.236Z,14.73
2018-02-15T09:20:46.789Z,13.40
2018-02-15T09:23:14.362Z,13.67
2018-02-15T09:25:42.292Z,14.20
2018-02-15T09:28:11.410Z,14.80
2018-02-15T09:30:40.068Z,15.13
2018-02-15T09:33:08.819Z,14.95
2018-02-15T09:35:36.400Z,15.70
2018-02-15T09:38:03.968Z,15.38
2018-02-15T09:40:31.547Z,14.47
2018-02-15T09:42:59.131Z,14.10
2018-02-15T09:45:26.728Z,15.15
2018-02-15T09:47:54.327Z,14.50
2018-02-15T09:50:22.652Z,15.68
2018-02-15T09:52:50.238Z,13.33
2018-02-15T09:55:17.779Z,13.97
2018-02-15T09:57:45.443Z,14.63
2018-02-15T10:00:13.393Z,15.70
2018-02-15T10:02:41.334Z,13.40
2018-02-15T10:05:10.465Z,14.10
2018-02-15T10:07:39.775Z,13.83
2018-02-15T10:10:08.161Z,14.10
2018-02-15T10:12:36.482Z,13.63
2018-02-15T10:15:04.495Z,13.90
2018-02-15T10:17:32.014Z,14.23
2018-02-15T10:20:02.524Z,13.43
2018-02-15T10:22:30.579Z,13.67
2018-02-15T10:24:58.152Z,14.70
2018-02-15T10:27:25.992Z,14.70
2018-02-15T10:29:54.366Z,13.70
2018-02-15T10:32:22.784Z,13.27
2018-02-15T10:34:50.467Z,12.67
2018-02-15T10:37:18.416Z,13.17
2018-02-15T10:39:45.996Z,13.57
2018-02-15T10:42:13.880Z,12.53
2018-02-15T10:44:41.476Z,11.85
2018-02-15T10:47:09.942Z,12.43
2018-02-15T10:49:37.471Z,13.32
2018-02-15T10:52:05.453Z,12.57
2018-02-15T10:54:33.023Z,11.80
2018-02-15T10:57:00.547Z,11.00
2018-02-15T10:59:29.180Z,10.00
2018-02-15T11:02:02.295Z,11.27
2018-02-15T11:04:34.242Z,13.07
2018-02-15T11:07:01.774Z,12.40
2018-02-15T11:09:29.361Z,26.53
2018-02-15T11:11:56.923Z,19.17
2018-02-15T11:14:24.449Z,12.83
2018-02-15T11:16:52.048Z,13.00
2018-02-15T11:19:19.626Z,12.60
2018-02-15T11:21:47.164Z,12.33
2018-02-15T11:24:14.984Z,12.52
2018-02-15T11:26:42.498Z,11.37
2018-02-15T11:29:10.132Z,11.03
2018-02-15T11:31:37.691Z,11.57
2018-02-15T11:34:05.277Z,11.60
2018-02-15T11:36:33.206Z,11.10
2018-02-15T11:39:00.804Z,11.68
2018-02-15T11:41:28.385Z,10.53
2018-02-15T11:43:55.903Z,11.13
2018-02-15T11:46:24.707Z,11.13
2018-02-15T11:48:52.230Z,11.37
2018-02-15T11:51:20.605Z,12.10
2018-02-15T11:53:48.913Z,11.30
2018-02-15T11:56:16.659Z,11.63
2018-02-15T11:58:44.188Z,12.30
2018-02-15T12:01:11.939Z,12.03
2018-02-15T12:03:40.559Z,12.52
2018-02-15T12:06:08.148Z,12.17
2018-02-15T12:08:37.012Z,13.20
2018-02-15T12:11:04.547Z,11.60
2018-02-15T12:13:34.086Z,11.67
2018-02-15T12:16:03.625Z,13.03
2018-02-15T12:18:31.224Z,12.20
2018-02-15T12:20:58.741Z,12.93
2018-02-15T12:23:26.414Z,12.83
2018-02-15T12:25:53.929Z,12.07
2018-02-15T12:28:21.457Z,12.10
2018-02-15T12:30:49.085Z,12.57
2018-02-15T12:33:16.624Z,11.97
2018-02-15T12:35:44.241Z,11.03
2018-02-15T12:38:12.709Z,11.63
2018-02-15T12:40:40.292Z,10.80
2018-02-15T12:43:07.828Z,10.63
2018-02-15T12:45:35.637Z,12.87
2018-02-15T12:48:03.202Z,11.83
2018-02-15T12:50:31.582Z,13.53
2018-02-15T12:52:59.158Z,13.33
2018-02-15T12:55:26.675Z,14.38
2018-02-15T12:57:54.195Z,13.88
2018-02-15T13:00:21.755Z,14.10
2018-02-15T13:02:49.319Z,14.82
2018-02-15T13:05:16.861Z,19.53
2018-02-15T13:07:44.451Z,13.60
2018-02-15T13:10:12.294Z,12.07
2018-02-15T13:12:51.571Z,12.33
2018-02-15T13:15:31.824Z,11.20
2018-02-15T13:17:59.353Z,11.07
2018-02-15T13:20:27.745Z,12.40
2018-02-15T13:22:55.327Z,11.40
2018-02-15T13:25:24.228Z,12.02
2018-02-15T13:28:03.719Z,12.17
2018-02-15T13:30:31.308Z,11.38
2018-02-15T13:32:59.473Z,11.27
2018-02-15T13:35:27.041Z,10.07
2018-02-15T13:37:54.665Z,13.60
2018-02-15T13:40:22.300Z,14.48
2018-02-15T13:42:49.820Z,11.70
2018-02-15T13:45:17.655Z,12.43
2018-02-15T13:47:45.667Z,11.57
2018-02-15T13:50:13.203Z,10.90
2018-02-15T13:52:40.762Z,10.57
2018-02-15T13:55:08.296Z,11.00
2018-02-15T13:57:35.863Z,10.23
2018-02-15T14:00:03.427Z,12.00
2018-02-15T14:02:31.052Z,16.05
2018-02-15T14:04:58.688Z,12.00
2018-02-15T14:07:28.278Z,11.37
2018-02-15T14:09:56.063Z,12.75
2018-02-15T14:12:23.635Z,12.40
2018-02-15T14:14:51.157Z,11.37
2018-02-15T14:17:18.702Z,12.35
2018-02-15T14:19:46.289Z,12.20
2018-02-15T14:22:13.820Z,11.93
2018-02-15T14:24:41.862Z,12.70
2018-02-15T14:27:10.506Z,11.90
2018-02-15T14:29:38.071Z,12.68
2018-02-15T14:32:06.879Z,13.47
2018-02-15T14:34:34.451Z,14.10
2018-02-15T14:37:02.007Z,14.10
2018-02-15T14:39:30.059Z,14.15
2018-02-15T14:41:57.624Z,14.13
2018-02-15T14:44:27.454Z,11.50
2018-02-15T14:46:55.797Z,13.15
2018-02-15T14:49:23.389Z,11.77
2018-02-15T14:51:51.076Z,14.80
2018-02-15T14:54:20.510Z,16.67
2018-02-15T14:56:48.117Z,17.90
2018-02-15T14:59:15.685Z,14.63
2018-02-15T15:01:43.247Z,12.23
2018-02-15T15:04:10.819Z,12.97
2018-02-15T15:06:38.394Z,14.27
2018-02-15T15:09:05.919Z,16.20
2018-02-15T15:11:33.482Z,17.43
2018-02-15T15:14:01.006Z,15.48
2018-02-15T15:16:28.571Z,15.60
2018-02-15T15:18:56.809Z,15.87
2018-02-15T15:21:24.337Z,17.87
2018-02-15T15:23:51.894Z,17.47
2018-02-15T15:26:19.702Z,19.63
2018-02-15T15:28:47.671Z,20.57
2018-02-15T15:31:16.027Z,21.97
2018-02-15T15:33:44.020Z,24.73
2018-02-15T15:36:11.576Z,24.10
2018-02-15T15:38:39.140Z,19.13
2018-02-15T15:41:06.666Z,18.87
2018-02-15T15:43:34.218Z,21.87
2018-02-15T15:46:01.778Z,22.90
2018-02-15T15:48:29.334Z,28.10
2018-02-15T15:50:58.665Z,29.07
2018-02-15T15:53:26.178Z,30.43
2018-02-15T15:55:54.560Z,31.90
2018-02-15T15:58:22.083Z,28.70
2018-02-15T16:00:49.638Z,26.87
2018-02-15T16:03:17.301Z,25.67
2018-02-15T16:05:47.014Z,31.87
2018-02-15T16:08:14.543Z,31.70
2018-02-15T16:10:44.027Z,34.40
2018-02-15T16:13:11.646Z,34.20
2018-02-15T16:15:41.032Z,35.37
2018-02-15T16:18:08.585Z,33.13
2018-02-15T16:20:36.164Z,34.23
2018-02-15T16:23:04.699Z,39.60
2018-02-15T16:25:32.272Z,49.83
2018-02-15T16:27:59.795Z,36.07
2018-02-15T16:30:27.740Z,41.63
2018-02-15T16:32:55.315Z,46.30
2018-02-15T16:35:22.833Z,43.40
2018-02-15T16:37:50.395Z,46.97
2018-02-15T16:40:17.959Z,45.03
2018-02-15T16:42:45.531Z,48.93
2018-02-15T16:45:13.913Z,33.43
2018-02-15T16:47:41.957Z,26.83
2018-02-15T16:50:09.707Z,27.13
2018-02-15T16:52:37.535Z,26.07
2018-02-15T16:55:05.060Z,27.27
2018-02-15T16:57:33.029Z,24.43
2018-02-15T17:00:00.566Z,23.97
2018-02-15T17:02:28.464Z,23.30
2018-02-15T17:04:56.172Z,22.70
2018-02-15T17:07:25.044Z,21.67
2018-02-15T17:09:52.607Z,22.37
2018-02-15T17:12:20.294Z,21.50
2018-02-15T17:14:47.863Z,21.60
2018-02-15T17:17:15.455Z,21.97
2018-02-15T17:19:43.024Z,23.07
2018-02-15T17:22:10.585Z,22.77
2018-02-15T17:24:38.212Z,22.13
2018-02-15T17:27:05.797Z,21.83
2018-02-15T17:29:33.946Z,22.03
2018-02-15T17:32:02.738Z,23.43
2018-02-15T17:34:30.267Z,22.50
2018-02-15T17:36:58.790Z,23.73
2018-02-15T17:39:26.351Z,23.53
2018-02-15T17:41:53.926Z,24.03
2018-02-15T17:44:21.511Z,23.60
2018-02-15T17:46:49.507Z,25.13
2018-02-15T17:49:17.087Z,23.50
2018-02-15T17:51:44.618Z,24.40
2018-02-15T17:54:12.889Z,24.40
2018-02-15T17:56:41.408Z,24.43
2018-02-15T17:59:10.017Z,24.00
2018-02-15T18:01:37.677Z,24.63
2018-02-15T18:04:05.207Z,26.33
2018-02-15T18:06:33.683Z,24.53
2018-02-15T18:09:01.198Z,24.50
2018-02-15T18:11:28.836Z,25.37
2018-02-15T18:13:57.288Z,25.00
2018-02-15T18:16:24.846Z,24.73
2018-02-15T18:18:53.038Z,23.93
2018-02-15T18:21:21.367Z,25.53
2018-02-15T18:23:48.888Z,25.37
2018-02-15T18:26:17.116Z,24.30
2018-02-15T18:28:44.967Z,24.17
2018-02-15T18:31:12.535Z,24.47
2018-02-15T18:33:40.977Z,25.53
2018-02-15T18:36:08.593Z,26.07
2018-02-15T18:38:37.403Z,24.70
2018-02-15T18:41:05.930Z,26.17
2018-02-15T18:43:33.460Z,26.30
2018-02-15T18:46:01.042Z,24.93
2018-02-15T18:48:29.495Z,24.83
2018-02-15T18:50:59.315Z,25.17
2018-02-15T18:53:26.849Z,27.03
2018-02-15T18:55:54.415Z,26.13
2018-02-15T18:58:22.891Z,26.90
2018-02-15T19:00:51.287Z,28.03
2018-02-15T19:03:19.329Z,27.40
2018-02-15T19:05:46.878Z,28.30
2018-02-15T19:08:15.857Z,27.83
2018-02-15T19:10:43.467Z,27.03
2018-02-15T19:13:11.911Z,29.40
2018-02-15T19:15:40.448Z,28.43
2018-02-15T19:18:07.966Z,30.33
2018-02-15T19:20:35.491Z,30.53
2018-02-15T19:23:03.238Z,31.67
2018-02-15T19:25:31.081Z,33.53
2018-02-15T19:27:59.531Z,35.50
2018-02-15T19:30:27.078Z,32.20
2018-02-15T19:32:54.594Z,36.03
2018-02-15T19:35:22.121Z,34.73
2018-02-15T19:37:49.704Z,32.13
2018-02-15T19:40:17.328Z,33.47
2018-02-15T19:42:44.869Z,35.97
2018-02-15T19:45:12.454Z,33.37
2018-02-15T19:47:40.006Z,31.23
2018-02-15T19:50:07.581Z,30.13
2018-02-15T19:52:35.296Z,31.40
2018-02-15T19:55:02.824Z,32.57
2018-02-15T19:57:30.387Z,33.70
2018-02-15T19:59:58.316Z,29.77
2018-02-15T20:02:26.335Z,29.97
2018-02-15T20:04:53.864Z,29.70
2018-02-15T20:07:22.232Z,28.63
2018-02-15T20:09:49.806Z,29.60
2018-02-15T20:12:17.358Z,29.03
2018-02-15T20:14:44.926Z,29.73
2018-02-15T20:17:13.268Z,27.87
2018-02-15T20:22:43.811Z,28.23
2018-02-15T20:25:11.328Z,29.20
2018-02-15T20:27:44.277Z,28.97
2018-02-15T20:30:12.176Z,29.97
2018-02-15T20:32:39.731Z,27.67
2018-02-15T20:35:07.810Z,28.40
2018-02-15T20:37:43.339Z,27.13
2018-02-15T20:40:17.769Z,27.30
2018-02-15T20:42:46.246Z,26.20
2018-02-15T20:45:14.283Z,26.33
2018-02-15T20:47:42.520Z,28.00
2018-02-15T20:50:15.566Z,25.17
2018-02-15T20:52:48.596Z,26.60
2018-02-15T20:55:22.459Z,26.80
2018-02-15T20:57:50.390Z,26.80
2018-02-15T21:00:18.068Z,31.47
2018-02-15T21:02:46.059Z,35.90
2018-02-15T21:05:13.634Z,28.77
2018-02-15T21:07:41.221Z,28.40
2018-02-15T21:10:08.734Z,26.30
2018-02-15T21:12:36.242Z,27.50
2018-02-15T21:15:05.572Z,27.53
2018-02-15T21:17:33.143Z,26.67
2018-02-15T21:20:00.658Z,25.87
2018-02-15T21:22:29.191Z,26.77
2018-02-15T21:24:56.757Z,26.30
2018-02-15T21:27:24.324Z,25.70
2018-02-15T21:29:52.248Z,26.20
2018-02-15T21:32:20.273Z,24.70
2018-02-15T21:34:47.839Z,24.67
2018-02-15T21:37:15.762Z,24.47
2018-02-15T21:39:43.367Z,25.20
2018-02-15T21:42:10.935Z,25.13
2018-02-15T21:44:38.506Z,27.13
2018-02-15T21:47:06.013Z,26.67
2018-02-15T21:49:33.639Z,25.27
2018-02-15T21:52:01.384Z,24.67
2018-02-15T21:54:29.541Z,23.63
2018-02-15T21:56:57.115Z,23.23
2018-02-15T21:59:25.640Z,23.60
2018-02-15T22:01:54.751Z,23.73
2018-02-15T22:04:24.524Z,23.97
2018-02-15T22:06:54.304Z,23.20
2018-02-15T22:09:23.296Z,23.00
2018-02-15T22:11:52.077Z,24.13
2018-02-15T22:14:21.232Z,25.30
2018-02-15T22:16:50.404Z,26.30
2018-02-15T22:19:19.288Z,25.87
2018-02-15T22:21:47.869Z,27.27
2018-02-15T22:24:17.526Z,27.13
2018-02-15T22:26:46.470Z,26.13
2018-02-15T22:29:15.019Z,24.53
2018-02-15T22:31:44.056Z,24.30
2018-02-15T22:34:13.375Z,23.77
2018-02-15T22:36:42.671Z,26.87
2018-02-15T22:39:11.134Z,27.70
2018-02-15T22:41:40.286Z,26.13
2018-02-15T22:44:09.762Z,24.10
2018-02-15T22:46:38.285Z,24.20
2018-02-15T22:49:07.722Z,23.07
2018-02-15T22:51:37.103Z,21.73
2018-02-15T22:54:05.813Z,23.50
2018-02-15T22:56:34.238Z,21.50
2018-02-15T22:59:02.720Z,21.33
2018-02-15T23:01:31.589Z,22.10
2018-02-15T23:03:59.941Z,22.13
2018-02-15T23:06:28.770Z,22.07
2018-02-15T23:08:57.302Z,21.57
2018-02-15T23:11:25.780Z,21.93
2018-02-15T23:13:55.069Z,20.80
2018-02-15T23:16:23.414Z,22.17
2018-02-15T23:18:50.959Z,21.33
2018-02-15T23:21:18.494Z,20.53
2018-02-15T23:23:46.077Z,21.63
2018-02-15T23:26:13.649Z,21.13
2018-02-15T23:28:41.465Z,21.03
2018-02-15T23:31:08.998Z,21.10
2018-02-15T23:33:36.595Z,22.33
2018-02-15T23:36:04.363Z,21.20
2018-02-15T23:38:31.903Z,22.87
2018-02-15T23:40:59.482Z,21.17
2018-02-15T23:43:27.023Z,21.70
2018-02-15T23:45:54.609Z,21.57
2018-02-15T23:48:22.360Z,19.90
2018-02-15T23:50:50.658Z,19.87
2018-02-15T23:53:18.616Z,20.10
2018-02-15T23:55:46.168Z,19.73
2018-02-15T23:58:13.770Z,17.90
